Observations for GUIDONIA IT-AFB, Italy (LIRG)

LIRG 161755Z 33007KT 9999 FEW040 29/12 Q1010
LIRG 161755Z 33007KT 9999 FEW040 29/12 Q1010 RMK FEW MON NE LIB NC VIS MIN 9999BLU
LIRG 161655Z 30009KT 9999 SCT035 30/12 Q1009
LIRG 161655Z 30009KT 9999 SCT035 30/12 Q1009 RMK SCT MON NE LIB NC VIS MIN 9999BLU
LIRG 161555Z 33010KT 9999 SCT035 31/12 Q1009
LIRG 161555Z 33010KT 9999 SCT035 31/12 Q1009 RMK SCT MON NE LIB NC VIS MIN 9999BLU
LIRG 161455Z 34010KT 9999 SCT030 31/13 Q1009
LIRG 161455Z 34010KT 9999 SCT030 31/13 Q1009 RMK SCT MON NE LIB NC VIS MIN 9999BLU
LIRG 161355Z 35012KT 9999 SCT030 31/13 Q1009
LIRG 161355Z 35012KT 9999 SCT030 31/13 Q1009 RMK SCT MON NE LIB NC VIS MIN 9999BLU
LIRG 161255Z 33010KT 9999 SCT030 31/14 Q1009
LIRG 161255Z 33010KT 9999 SCT030 31/14 Q1009 RMK SCT MON NE LIB NC VIS MIN 9999BLU
LIRG 161155Z 07004G16KT 9999 FEW030 30/14 Q1009 RMK FEW MON NE LIB NC VIS MIN 9999 BLU  
LIRG 161055Z 05013G25KT 9999 FEW030 30/13 Q1009 
LIRG 161055Z 05013G25KT 9999 FEW030 30/13 Q1009 RMK FEW MON NE LIB NC VIS MIN 9999 BLU
LIRG 160955Z 03011KT 9999 SCT030 29/13 Q1009
LIRG 160955Z 03011KT 9999 SCT030 29/13 Q1009 RMK SCT MON NE LIB NC VIS MIN 9999BLU
LIRG 160855Z 04008KT 9999 FEW030 28/14 Q1008
LIRG 160855Z 04008KT 9999 FEW030 28/14 Q1008 RMK FEW MON NE LIB NC VIS MIN 9999BLU
LIRG 160755Z 34004KT CAVOK 26/15 Q1008  
LIRG 160755Z 34004KT CAVOK 26/15 Q1008 RMK FEW FEW060 MON NE LIB NC VIS MIN 9999 BLU
LIRG 160655Z 07002KT 9999 FEW040 24/16 Q1008
LIRG 160655Z 07002KT 9999 FEW040 24/16 Q1008 RMK FEW MON NE LIB NC VIS MIN 9999BLU
LIRG 160555Z 23004KT 9999 FEW040 20/15 Q1008
LIRG 160555Z 23004KT 9999 FEW040 20/15 Q1008 RMK FEW MON NE LIB NC VIS MIN 9999BLU
LIRG 160455Z 25003KT 9999 FEW050 19/15 Q1008
LIRG 160455Z 25003KT 9999 FEW050 19/15 Q1008 RMK FEW MON NE LIB VIS MIN 9999 BLU